sensor_id;sensor_type;location;lat;lon;timestamp;P1;durP1;ratioP1;P2;durP2;ratioP2
78716;SDS011;68045;50.042;14.432;2023-05-29T00:00:16;8.35;;;3.03;;
78716;SDS011;68045;50.042;14.432;2023-05-29T00:04:39;5.43;;;3.13;;
78716;SDS011;68045;50.042;14.432;2023-05-29T00:08:40;5.38;;;3.13;;
78716;SDS011;68045;50.042;14.432;2023-05-29T00:12:42;6.97;;;4.45;;
78716;SDS011;68045;50.042;14.432;2023-05-29T00:16:42;10.57;;;4.13;;
78716;SDS011;68045;50.042;14.432;2023-05-29T00:20:44;9.85;;;4.65;;
78716;SDS011;68045;50.042;14.432;2023-05-29T00:24:46;9.75;;;4.18;;
78716;SDS011;68045;50.042;14.432;2023-05-29T00:28:46;7.82;;;3.90;;
78716;SDS011;68045;50.042;14.432;2023-05-29T00:32:48;10.80;;;5.00;;
78716;SDS011;68045;50.042;14.432;2023-05-29T00:36:49;9.45;;;4.38;;
78716;SDS011;68045;50.042;14.432;2023-05-29T00:40:50;8.45;;;4.28;;
78716;SDS011;68045;50.042;14.432;2023-05-29T00:44:51;10.20;;;5.25;;
78716;SDS011;68045;50.042;14.432;2023-05-29T00:48:52;10.52;;;5.53;;
78716;SDS011;68045;50.042;14.432;2023-05-29T00:52:53;8.85;;;5.43;;
78716;SDS011;68045;50.042;14.432;2023-05-29T00:56:54;6.80;;;4.55;;
78716;SDS011;68045;50.042;14.432;2023-05-29T01:05:31;14.13;;;4.82;;
78716;SDS011;68045;50.042;14.432;2023-05-29T01:09:35;9.38;;;4.72;;
78716;SDS011;68045;50.042;14.432;2023-05-29T01:13:37;7.70;;;4.63;;
78716;SDS011;68045;50.042;14.432;2023-05-29T01:17:51;13.13;;;5.00;;
78716;SDS011;68045;50.042;14.432;2023-05-29T01:26:43;8.63;;;5.05;;
78716;SDS011;68045;50.042;14.432;2023-05-29T01:30:50;9.35;;;4.72;;
78716;SDS011;68045;50.042;14.432;2023-05-29T01:34:54;9.68;;;4.40;;
78716;SDS011;68045;50.042;14.432;2023-05-29T01:38:55;11.52;;;4.90;;
78716;SDS011;68045;50.042;14.432;2023-05-29T01:42:58;9.68;;;4.70;;
78716;SDS011;68045;50.042;14.432;2023-05-29T01:46:58;9.57;;;4.55;;
78716;SDS011;68045;50.042;14.432;2023-05-29T01:51:01;10.25;;;4.85;;
78716;SDS011;68045;50.042;14.432;2023-05-29T01:55:02;8.32;;;4.35;;
78716;SDS011;68045;50.042;14.432;2023-05-29T01:59:03;10.48;;;4.70;;
78716;SDS011;68045;50.042;14.432;2023-05-29T02:03:05;10.85;;;4.88;;
78716;SDS011;68045;50.042;14.432;2023-05-29T02:07:06;10.98;;;4.90;;
78716;SDS011;68045;50.042;14.432;2023-05-29T02:11:07;8.13;;;4.40;;
78716;SDS011;68045;50.042;14.432;2023-05-29T02:15:08;11.15;;;4.55;;
78716;SDS011;68045;50.042;14.432;2023-05-29T02:19:10;8.40;;;4.53;;
78716;SDS011;68045;50.042;14.432;2023-05-29T02:23:11;6.90;;;4.28;;
78716;SDS011;68045;50.042;14.432;2023-05-29T02:27:12;13.07;;;5.30;;
78716;SDS011;68045;50.042;14.432;2023-05-29T02:31:16;7.43;;;4.90;;
78716;SDS011;68045;50.042;14.432;2023-05-29T02:35:16;9.95;;;4.45;;
78716;SDS011;68045;50.042;14.432;2023-05-29T02:39:21;8.65;;;4.55;;
78716;SDS011;68045;50.042;14.432;2023-05-29T02:43:23;9.85;;;4.47;;
78716;SDS011;68045;50.042;14.432;2023-05-29T02:47:24;8.82;;;4.53;;
78716;SDS011;68045;50.042;14.432;2023-05-29T02:51:24;9.25;;;4.15;;
78716;SDS011;68045;50.042;14.432;2023-05-29T02:55:25;12.43;;;4.50;;
78716;SDS011;68045;50.042;14.432;2023-05-29T02:59:26;8.35;;;4.97;;
78716;SDS011;68045;50.042;14.432;2023-05-29T03:03:28;9.90;;;4.60;;
78716;SDS011;68045;50.042;14.432;2023-05-29T03:07:28;9.23;;;4.60;;
78716;SDS011;68045;50.042;14.432;2023-05-29T03:11:33;7.80;;;4.68;;
78716;SDS011;68045;50.042;14.432;2023-05-29T03:15:36;9.40;;;4.47;;
78716;SDS011;68045;50.042;14.432;2023-05-29T03:19:37;9.10;;;4.53;;
78716;SDS011;68045;50.042;14.432;2023-05-29T03:23:39;8.32;;;4.90;;
78716;SDS011;68045;50.042;14.432;2023-05-29T03:27:40;10.68;;;4.75;;
78716;SDS011;68045;50.042;14.432;2023-05-29T03:31:45;7.45;;;4.45;;
78716;SDS011;68045;50.042;14.432;2023-05-29T03:35:50;10.07;;;5.05;;
78716;SDS011;68045;50.042;14.432;2023-05-29T03:39:51;8.45;;;4.10;;
78716;SDS011;68045;50.042;14.432;2023-05-29T03:43:52;10.00;;;4.75;;
78716;SDS011;68045;50.042;14.432;2023-05-29T03:47:55;8.35;;;4.43;;
78716;SDS011;68045;50.042;14.432;2023-05-29T03:51:56;11.55;;;5.65;;
78716;SDS011;68045;50.042;14.432;2023-05-29T03:55:58;9.38;;;4.88;;
78716;SDS011;68045;50.042;14.432;2023-05-29T03:59:59;9.90;;;5.10;;
78716;SDS011;68045;50.042;14.432;2023-05-29T04:04:01;9.60;;;5.05;;
78716;SDS011;68045;50.042;14.432;2023-05-29T04:08:02;9.00;;;4.70;;
78716;SDS011;68045;50.042;14.432;2023-05-29T04:12:05;12.30;;;5.07;;
78716;SDS011;68045;50.042;14.432;2023-05-29T04:16:08;15.43;;;5.22;;
78716;SDS011;68045;50.042;14.432;2023-05-29T04:20:09;9.90;;;5.15;;
78716;SDS011;68045;50.042;14.432;2023-05-29T04:24:11;12.90;;;5.00;;
78716;SDS011;68045;50.042;14.432;2023-05-29T04:28:12;10.07;;;5.00;;
78716;SDS011;68045;50.042;14.432;2023-05-29T04:32:13;10.65;;;5.45;;
78716;SDS011;68045;50.042;14.432;2023-05-29T04:36:14;8.50;;;4.95;;
78716;SDS011;68045;50.042;14.432;2023-05-29T04:40:19;8.35;;;4.65;;
78716;SDS011;68045;50.042;14.432;2023-05-29T04:44:21;16.92;;;4.95;;
78716;SDS011;68045;50.042;14.432;2023-05-29T04:48:25;8.68;;;4.75;;
78716;SDS011;68045;50.042;14.432;2023-05-29T04:52:27;7.78;;;4.30;;
78716;SDS011;68045;50.042;14.432;2023-05-29T04:56:29;9.48;;;4.45;;
78716;SDS011;68045;50.042;14.432;2023-05-29T05:00:30;9.27;;;4.72;;
78716;SDS011;68045;50.042;14.432;2023-05-29T05:04:31;9.00;;;4.18;;
78716;SDS011;68045;50.042;14.432;2023-05-29T05:08:33;6.55;;;4.25;;
78716;SDS011;68045;50.042;14.432;2023-05-29T05:12:34;9.48;;;4.80;;
78716;SDS011;68045;50.042;14.432;2023-05-29T05:16:36;7.78;;;4.68;;
78716;SDS011;68045;50.042;14.432;2023-05-29T05:20:38;9.57;;;4.32;;
78716;SDS011;68045;50.042;14.432;2023-05-29T05:24:38;9.93;;;4.45;;
78716;SDS011;68045;50.042;14.432;2023-05-29T05:28:39;15.07;;;4.75;;
78716;SDS011;68045;50.042;14.432;2023-05-29T05:32:40;12.82;;;5.18;;
78716;SDS011;68045;50.042;14.432;2023-05-29T05:36:41;9.88;;;4.85;;
78716;SDS011;68045;50.042;14.432;2023-05-29T05:40:47;8.15;;;4.65;;
78716;SDS011;68045;50.042;14.432;2023-05-29T05:44:55;12.23;;;5.05;;
78716;SDS011;68045;50.042;14.432;2023-05-29T05:48:57;15.10;;;4.93;;
78716;SDS011;68045;50.042;14.432;2023-05-29T05:52:58;9.40;;;4.85;;
78716;SDS011;68045;50.042;14.432;2023-05-29T05:56:59;9.70;;;4.88;;
78716;SDS011;68045;50.042;14.432;2023-05-29T06:01:01;9.88;;;4.85;;
78716;SDS011;68045;50.042;14.432;2023-05-29T06:05:03;11.23;;;5.05;;
78716;SDS011;68045;50.042;14.432;2023-05-29T06:09:04;10.48;;;5.10;;
78716;SDS011;68045;50.042;14.432;2023-05-29T06:13:05;7.43;;;4.18;;
78716;SDS011;68045;50.042;14.432;2023-05-29T06:17:17;8.00;;;4.60;;
78716;SDS011;68045;50.042;14.432;2023-05-29T06:21:18;8.20;;;4.55;;
78716;SDS011;68045;50.042;14.432;2023-05-29T06:25:27;10.30;;;4.63;;
78716;SDS011;68045;50.042;14.432;2023-05-29T06:29:33;10.75;;;4.57;;
78716;SDS011;68045;50.042;14.432;2023-05-29T06:33:35;8.57;;;4.80;;
78716;SDS011;68045;50.042;14.432;2023-05-29T06:37:37;8.02;;;4.53;;
78716;SDS011;68045;50.042;14.432;2023-05-29T06:41:39;7.35;;;4.05;;
78716;SDS011;68045;50.042;14.432;2023-05-29T06:45:40;8.40;;;4.00;;
78716;SDS011;68045;50.042;14.432;2023-05-29T06:49:41;12.18;;;4.65;;
78716;SDS011;68045;50.042;14.432;2023-05-29T06:53:42;8.93;;;4.20;;
78716;SDS011;68045;50.042;14.432;2023-05-29T06:57:46;10.43;;;4.03;;
78716;SDS011;68045;50.042;14.432;2023-05-29T07:01:47;6.82;;;3.95;;
78716;SDS011;68045;50.042;14.432;2023-05-29T07:05:48;11.38;;;3.80;;
78716;SDS011;68045;50.042;14.432;2023-05-29T07:09:49;8.77;;;4.00;;
78716;SDS011;68045;50.042;14.432;2023-05-29T07:13:51;9.23;;;3.58;;
78716;SDS011;68045;50.042;14.432;2023-05-29T07:17:52;9.63;;;4.38;;
78716;SDS011;68045;50.042;14.432;2023-05-29T07:21:58;8.02;;;3.58;;
78716;SDS011;68045;50.042;14.432;2023-05-29T07:25:59;7.55;;;3.70;;
78716;SDS011;68045;50.042;14.432;2023-05-29T07:30:03;6.55;;;2.95;;
78716;SDS011;68045;50.042;14.432;2023-05-29T07:34:06;8.85;;;3.05;;
78716;SDS011;68045;50.042;14.432;2023-05-29T07:38:07;6.72;;;2.70;;
78716;SDS011;68045;50.042;14.432;2023-05-29T07:42:08;11.63;;;3.05;;
78716;SDS011;68045;50.042;14.432;2023-05-29T07:46:12;6.50;;;2.97;;
78716;SDS011;68045;50.042;14.432;2023-05-29T07:50:15;5.80;;;2.88;;
78716;SDS011;68045;50.042;14.432;2023-05-29T07:54:16;7.10;;;2.83;;
78716;SDS011;68045;50.042;14.432;2023-05-29T07:58:19;8.93;;;3.13;;
78716;SDS011;68045;50.042;14.432;2023-05-29T08:06:45;6.95;;;2.63;;
78716;SDS011;68045;50.042;14.432;2023-05-29T08:10:47;7.38;;;3.03;;
78716;SDS011;68045;50.042;14.432;2023-05-29T08:14:48;6.93;;;2.58;;
78716;SDS011;68045;50.042;14.432;2023-05-29T08:18:50;5.03;;;2.72;;
78716;SDS011;68045;50.042;14.432;2023-05-29T08:22:51;6.65;;;2.72;;
78716;SDS011;68045;50.042;14.432;2023-05-29T08:26:52;5.85;;;2.70;;
78716;SDS011;68045;50.042;14.432;2023-05-29T08:30:53;5.85;;;2.60;;
78716;SDS011;68045;50.042;14.432;2023-05-29T08:34:54;7.90;;;2.60;;
78716;SDS011;68045;50.042;14.432;2023-05-29T08:38:55;6.97;;;2.38;;
78716;SDS011;68045;50.042;14.432;2023-05-29T08:43:02;6.13;;;2.85;;
78716;SDS011;68045;50.042;14.432;2023-05-29T08:47:18;12.07;;;3.22;;
78716;SDS011;68045;50.042;14.432;2023-05-29T08:51:21;10.93;;;2.67;;
78716;SDS011;68045;50.042;14.432;2023-05-29T08:55:30;3.85;;;2.40;;
78716;SDS011;68045;50.042;14.432;2023-05-29T08:59:32;9.85;;;2.50;;
78716;SDS011;68045;50.042;14.432;2023-05-29T09:03:34;4.43;;;2.35;;
78716;SDS011;68045;50.042;14.432;2023-05-29T09:07:35;6.90;;;2.95;;
78716;SDS011;68045;50.042;14.432;2023-05-29T09:11:39;8.48;;;2.75;;
78716;SDS011;68045;50.042;14.432;2023-05-29T09:15:40;3.80;;;1.92;;
78716;SDS011;68045;50.042;14.432;2023-05-29T09:19:43;5.32;;;2.90;;
78716;SDS011;68045;50.042;14.432;2023-05-29T09:23:45;9.88;;;2.92;;
78716;SDS011;68045;50.042;14.432;2023-05-29T09:27:46;5.65;;;2.60;;
78716;SDS011;68045;50.042;14.432;2023-05-29T09:31:47;4.45;;;2.40;;
78716;SDS011;68045;50.042;14.432;2023-05-29T09:35:49;9.70;;;2.40;;
78716;SDS011;68045;50.042;14.432;2023-05-29T09:39:50;6.97;;;2.33;;
78716;SDS011;68045;50.042;14.432;2023-05-29T09:43:54;6.57;;;2.53;;
78716;SDS011;68045;50.042;14.432;2023-05-29T09:47:56;4.10;;;2.60;;
78716;SDS011;68045;50.042;14.432;2023-05-29T09:51:59;6.28;;;2.83;;
78716;SDS011;68045;50.042;14.432;2023-05-29T09:56:00;4.53;;;2.63;;
78716;SDS011;68045;50.042;14.432;2023-05-29T10:00:03;4.88;;;2.80;;
78716;SDS011;68045;50.042;14.432;2023-05-29T10:04:13;5.40;;;2.53;;
78716;SDS011;68045;50.042;14.432;2023-05-29T10:08:15;8.15;;;2.42;;
78716;SDS011;68045;50.042;14.432;2023-05-29T10:12:19;4.75;;;2.25;;
78716;SDS011;68045;50.042;14.432;2023-05-29T10:16:23;6.70;;;2.63;;
78716;SDS011;68045;50.042;14.432;2023-05-29T10:20:24;4.97;;;2.40;;
78716;SDS011;68045;50.042;14.432;2023-05-29T10:24:26;6.40;;;2.38;;
78716;SDS011;68045;50.042;14.432;2023-05-29T10:28:29;8.05;;;2.63;;
78716;SDS011;68045;50.042;14.432;2023-05-29T10:32:36;3.38;;;2.40;;
78716;SDS011;68045;50.042;14.432;2023-05-29T10:37:14;5.55;;;2.65;;
78716;SDS011;68045;50.042;14.432;2023-05-29T10:49:32;5.70;;;2.80;;
78716;SDS011;68045;50.042;14.432;2023-05-29T10:53:33;4.40;;;2.30;;
78716;SDS011;68045;50.042;14.432;2023-05-29T10:57:34;5.18;;;2.70;;
78716;SDS011;68045;50.042;14.432;2023-05-29T11:01:40;5.40;;;2.60;;
78716;SDS011;68045;50.042;14.432;2023-05-29T11:05:58;4.55;;;2.65;;
78716;SDS011;68045;50.042;14.432;2023-05-29T11:10:12;6.93;;;2.50;;
78716;SDS011;68045;50.042;14.432;2023-05-29T11:14:14;5.72;;;2.47;;
78716;SDS011;68045;50.042;14.432;2023-05-29T11:18:15;4.18;;;2.40;;
78716;SDS011;68045;50.042;14.432;2023-05-29T11:22:22;3.80;;;2.53;;
78716;SDS011;68045;50.042;14.432;2023-05-29T11:26:28;5.95;;;2.70;;
78716;SDS011;68045;50.042;14.432;2023-05-29T11:30:30;5.80;;;2.63;;
78716;SDS011;68045;50.042;14.432;2023-05-29T11:34:32;5.30;;;2.92;;
78716;SDS011;68045;50.042;14.432;2023-05-29T11:38:33;6.47;;;2.70;;
78716;SDS011;68045;50.042;14.432;2023-05-29T11:42:34;5.68;;;2.88;;
78716;SDS011;68045;50.042;14.432;2023-05-29T11:46:45;5.60;;;2.65;;
78716;SDS011;68045;50.042;14.432;2023-05-29T11:50:47;9.45;;;3.08;;
78716;SDS011;68045;50.042;14.432;2023-05-29T11:54:48;11.50;;;3.33;;
78716;SDS011;68045;50.042;14.432;2023-05-29T11:58:50;5.13;;;2.40;;
78716;SDS011;68045;50.042;14.432;2023-05-29T12:02:52;4.65;;;2.35;;
78716;SDS011;68045;50.042;14.432;2023-05-29T12:06:52;5.60;;;2.72;;
78716;SDS011;68045;50.042;14.432;2023-05-29T12:10:54;9.73;;;2.63;;
78716;SDS011;68045;50.042;14.432;2023-05-29T12:14:55;5.22;;;2.28;;
78716;SDS011;68045;50.042;14.432;2023-05-29T12:18:56;4.97;;;2.13;;
78716;SDS011;68045;50.042;14.432;2023-05-29T12:23:01;4.72;;;2.40;;
78716;SDS011;68045;50.042;14.432;2023-05-29T12:27:05;6.47;;;2.60;;
78716;SDS011;68045;50.042;14.432;2023-05-29T12:31:08;4.65;;;2.47;;
78716;SDS011;68045;50.042;14.432;2023-05-29T12:39:12;4.38;;;2.40;;
78716;SDS011;68045;50.042;14.432;2023-05-29T12:43:13;4.32;;;2.50;;
78716;SDS011;68045;50.042;14.432;2023-05-29T12:47:14;3.88;;;2.50;;
78716;SDS011;68045;50.042;14.432;2023-05-29T12:51:24;4.65;;;2.60;;
78716;SDS011;68045;50.042;14.432;2023-05-29T12:55:29;4.95;;;2.40;;
78716;SDS011;68045;50.042;14.432;2023-05-29T12:59:33;4.95;;;2.33;;
78716;SDS011;68045;50.042;14.432;2023-05-29T13:03:34;6.95;;;2.42;;
78716;SDS011;68045;50.042;14.432;2023-05-29T13:07:36;10.52;;;2.20;;
78716;SDS011;68045;50.042;14.432;2023-05-29T13:11:37;3.63;;;2.35;;
78716;SDS011;68045;50.042;14.432;2023-05-29T13:15:38;4.55;;;2.40;;
78716;SDS011;68045;50.042;14.432;2023-05-29T13:19:40;3.72;;;2.60;;
78716;SDS011;68045;50.042;14.432;2023-05-29T13:23:41;5.13;;;2.38;;
78716;SDS011;68045;50.042;14.432;2023-05-29T13:27:43;5.93;;;2.60;;
78716;SDS011;68045;50.042;14.432;2023-05-29T13:31:45;3.97;;;2.33;;
78716;SDS011;68045;50.042;14.432;2023-05-29T13:35:46;4.65;;;2.30;;
78716;SDS011;68045;50.042;14.432;2023-05-29T13:39:47;5.97;;;2.30;;
78716;SDS011;68045;50.042;14.432;2023-05-29T13:43:48;4.15;;;2.35;;
78716;SDS011;68045;50.042;14.432;2023-05-29T13:47:49;6.05;;;2.80;;
78716;SDS011;68045;50.042;14.432;2023-05-29T13:51:50;6.10;;;2.38;;
78716;SDS011;68045;50.042;14.432;2023-05-29T13:55:51;5.85;;;2.83;;
78716;SDS011;68045;50.042;14.432;2023-05-29T13:59:52;5.28;;;2.45;;
78716;SDS011;68045;50.042;14.432;2023-05-29T14:03:53;4.43;;;2.95;;
78716;SDS011;68045;50.042;14.432;2023-05-29T14:07:54;4.53;;;2.80;;
78716;SDS011;68045;50.042;14.432;2023-05-29T14:11:55;5.60;;;2.50;;
78716;SDS011;68045;50.042;14.432;2023-05-29T14:15:57;5.45;;;3.03;;
78716;SDS011;68045;50.042;14.432;2023-05-29T14:19:57;4.63;;;2.58;;
78716;SDS011;68045;50.042;14.432;2023-05-29T14:23:58;4.90;;;2.63;;
78716;SDS011;68045;50.042;14.432;2023-05-29T14:27:59;4.53;;;2.60;;
78716;SDS011;68045;50.042;14.432;2023-05-29T14:32:00;8.20;;;2.88;;
78716;SDS011;68045;50.042;14.432;2023-05-29T14:36:01;4.60;;;2.38;;
78716;SDS011;68045;50.042;14.432;2023-05-29T14:40:02;5.32;;;2.45;;
78716;SDS011;68045;50.042;14.432;2023-05-29T14:48:05;4.32;;;2.33;;
78716;SDS011;68045;50.042;14.432;2023-05-29T14:52:06;6.43;;;2.85;;
78716;SDS011;68045;50.042;14.432;2023-05-29T14:56:06;6.35;;;2.60;;
78716;SDS011;68045;50.042;14.432;2023-05-29T15:00:07;6.93;;;2.63;;
78716;SDS011;68045;50.042;14.432;2023-05-29T15:04:09;4.97;;;2.67;;
78716;SDS011;68045;50.042;14.432;2023-05-29T15:08:10;8.38;;;2.70;;
78716;SDS011;68045;50.042;14.432;2023-05-29T15:12:11;9.18;;;2.72;;
78716;SDS011;68045;50.042;14.432;2023-05-29T15:16:12;10.48;;;2.78;;
78716;SDS011;68045;50.042;14.432;2023-05-29T15:20:12;5.85;;;2.42;;
78716;SDS011;68045;50.042;14.432;2023-05-29T15:24:13;6.90;;;2.75;;
78716;SDS011;68045;50.042;14.432;2023-05-29T15:28:14;6.53;;;2.60;;
78716;SDS011;68045;50.042;14.432;2023-05-29T15:32:15;5.60;;;2.60;;
78716;SDS011;68045;50.042;14.432;2023-05-29T15:36:16;5.63;;;2.70;;
78716;SDS011;68045;50.042;14.432;2023-05-29T15:40:19;5.13;;;2.70;;
78716;SDS011;68045;50.042;14.432;2023-05-29T15:44:20;8.35;;;2.83;;
78716;SDS011;68045;50.042;14.432;2023-05-29T15:48:22;7.88;;;2.70;;
78716;SDS011;68045;50.042;14.432;2023-05-29T15:52:26;6.35;;;2.50;;
78716;SDS011;68045;50.042;14.432;2023-05-29T15:56:27;7.75;;;2.50;;
78716;SDS011;68045;50.042;14.432;2023-05-29T16:00:29;5.28;;;2.85;;
78716;SDS011;68045;50.042;14.432;2023-05-29T16:04:30;4.63;;;2.70;;
78716;SDS011;68045;50.042;14.432;2023-05-29T16:08:32;4.78;;;2.95;;
78716;SDS011;68045;50.042;14.432;2023-05-29T16:12:33;7.00;;;2.50;;
78716;SDS011;68045;50.042;14.432;2023-05-29T16:16:34;7.25;;;2.90;;
78716;SDS011;68045;50.042;14.432;2023-05-29T16:20:35;6.25;;;2.70;;
78716;SDS011;68045;50.042;14.432;2023-05-29T16:24:36;3.75;;;2.42;;
78716;SDS011;68045;50.042;14.432;2023-05-29T16:28:37;6.18;;;2.58;;
78716;SDS011;68045;50.042;14.432;2023-05-29T16:32:38;3.15;;;2.28;;
78716;SDS011;68045;50.042;14.432;2023-05-29T16:36:39;6.43;;;2.40;;
78716;SDS011;68045;50.042;14.432;2023-05-29T16:40:39;7.30;;;2.60;;
78716;SDS011;68045;50.042;14.432;2023-05-29T16:44:40;5.03;;;2.55;;
78716;SDS011;68045;50.042;14.432;2023-05-29T16:48:42;6.22;;;3.10;;
78716;SDS011;68045;50.042;14.432;2023-05-29T16:52:45;9.30;;;2.80;;
78716;SDS011;68045;50.042;14.432;2023-05-29T16:56:47;7.15;;;2.55;;
78716;SDS011;68045;50.042;14.432;2023-05-29T17:00:48;4.68;;;2.65;;
78716;SDS011;68045;50.042;14.432;2023-05-29T17:04:48;5.97;;;2.70;;
78716;SDS011;68045;50.042;14.432;2023-05-29T17:08:49;8.93;;;3.13;;
78716;SDS011;68045;50.042;14.432;2023-05-29T17:12:50;5.22;;;2.80;;
78716;SDS011;68045;50.042;14.432;2023-05-29T17:16:53;4.28;;;2.70;;
78716;SDS011;68045;50.042;14.432;2023-05-29T17:20:54;5.68;;;2.65;;
78716;SDS011;68045;50.042;14.432;2023-05-29T17:24:55;6.70;;;3.13;;
78716;SDS011;68045;50.042;14.432;2023-05-29T17:28:56;5.55;;;3.00;;
78716;SDS011;68045;50.042;14.432;2023-05-29T17:32:57;4.35;;;2.80;;
78716;SDS011;68045;50.042;14.432;2023-05-29T17:36:58;4.68;;;2.83;;
78716;SDS011;68045;50.042;14.432;2023-05-29T17:40:59;6.15;;;3.40;;
78716;SDS011;68045;50.042;14.432;2023-05-29T17:45:00;6.22;;;2.97;;
78716;SDS011;68045;50.042;14.432;2023-05-29T17:49:02;7.50;;;3.42;;
78716;SDS011;68045;50.042;14.432;2023-05-29T17:53:03;5.82;;;3.03;;
78716;SDS011;68045;50.042;14.432;2023-05-29T17:57:04;4.50;;;2.90;;
78716;SDS011;68045;50.042;14.432;2023-05-29T18:01:05;4.32;;;2.90;;
78716;SDS011;68045;50.042;14.432;2023-05-29T18:05:06;7.72;;;3.53;;
78716;SDS011;68045;50.042;14.432;2023-05-29T18:09:07;5.70;;;2.70;;
78716;SDS011;68045;50.042;14.432;2023-05-29T18:13:09;6.00;;;3.20;;
78716;SDS011;68045;50.042;14.432;2023-05-29T18:17:10;5.55;;;3.00;;
78716;SDS011;68045;50.042;14.432;2023-05-29T18:21:11;6.25;;;3.08;;
78716;SDS011;68045;50.042;14.432;2023-05-29T18:25:12;6.20;;;2.97;;
78716;SDS011;68045;50.042;14.432;2023-05-29T18:29:15;5.45;;;3.30;;
78716;SDS011;68045;50.042;14.432;2023-05-29T18:33:16;8.02;;;3.90;;
78716;SDS011;68045;50.042;14.432;2023-05-29T18:37:17;4.75;;;2.80;;
78716;SDS011;68045;50.042;14.432;2023-05-29T18:41:18;5.47;;;3.33;;
78716;SDS011;68045;50.042;14.432;2023-05-29T18:45:19;6.60;;;3.15;;
78716;SDS011;68045;50.042;14.432;2023-05-29T18:49:20;10.55;;;5.18;;
78716;SDS011;68045;50.042;14.432;2023-05-29T18:53:21;6.65;;;3.22;;
78716;SDS011;68045;50.042;14.432;2023-05-29T18:57:24;4.95;;;3.30;;
78716;SDS011;68045;50.042;14.432;2023-05-29T19:01:25;7.03;;;3.30;;
78716;SDS011;68045;50.042;14.432;2023-05-29T19:05:25;7.72;;;3.58;;
78716;SDS011;68045;50.042;14.432;2023-05-29T19:09:26;6.25;;;3.35;;
78716;SDS011;68045;50.042;14.432;2023-05-29T19:13:28;7.03;;;3.33;;
78716;SDS011;68045;50.042;14.432;2023-05-29T19:17:28;6.82;;;4.38;;
78716;SDS011;68045;50.042;14.432;2023-05-29T19:21:29;7.80;;;3.55;;
78716;SDS011;68045;50.042;14.432;2023-05-29T19:25:30;6.05;;;3.40;;
78716;SDS011;68045;50.042;14.432;2023-05-29T19:29:32;7.03;;;3.60;;
78716;SDS011;68045;50.042;14.432;2023-05-29T19:33:33;9.93;;;4.70;;
78716;SDS011;68045;50.042;14.432;2023-05-29T19:37:34;7.70;;;3.20;;
78716;SDS011;68045;50.042;14.432;2023-05-29T19:41:35;6.63;;;3.72;;
78716;SDS011;68045;50.042;14.432;2023-05-29T19:45:38;5.30;;;3.45;;
78716;SDS011;68045;50.042;14.432;2023-05-29T19:49:39;6.75;;;3.20;;
78716;SDS011;68045;50.042;14.432;2023-05-29T19:53:40;9.02;;;3.80;;
78716;SDS011;68045;50.042;14.432;2023-05-29T19:57:41;7.68;;;3.67;;
78716;SDS011;68045;50.042;14.432;2023-05-29T20:01:42;8.43;;;3.65;;
78716;SDS011;68045;50.042;14.432;2023-05-29T20:05:44;7.47;;;3.88;;
78716;SDS011;68045;50.042;14.432;2023-05-29T20:09:45;10.18;;;3.72;;
78716;SDS011;68045;50.042;14.432;2023-05-29T20:13:46;6.88;;;3.30;;
78716;SDS011;68045;50.042;14.432;2023-05-29T20:17:46;7.93;;;3.42;;
78716;SDS011;68045;50.042;14.432;2023-05-29T20:21:47;7.78;;;3.58;;
78716;SDS011;68045;50.042;14.432;2023-05-29T20:25:48;7.85;;;4.00;;
78716;SDS011;68045;50.042;14.432;2023-05-29T20:29:49;8.15;;;3.72;;
78716;SDS011;68045;50.042;14.432;2023-05-29T20:33:51;11.05;;;3.72;;
78716;SDS011;68045;50.042;14.432;2023-05-29T20:37:53;6.85;;;3.08;;
78716;SDS011;68045;50.042;14.432;2023-05-29T20:41:54;6.95;;;3.72;;
78716;SDS011;68045;50.042;14.432;2023-05-29T20:45:58;5.80;;;3.45;;
78716;SDS011;68045;50.042;14.432;2023-05-29T20:50:01;10.18;;;4.20;;
78716;SDS011;68045;50.042;14.432;2023-05-29T20:54:03;8.50;;;3.80;;
78716;SDS011;68045;50.042;14.432;2023-05-29T20:58:04;6.93;;;4.05;;
78716;SDS011;68045;50.042;14.432;2023-05-29T21:02:06;7.45;;;3.83;;
78716;SDS011;68045;50.042;14.432;2023-05-29T21:06:08;10.93;;;4.00;;
78716;SDS011;68045;50.042;14.432;2023-05-29T21:10:09;8.45;;;3.85;;
78716;SDS011;68045;50.042;14.432;2023-05-29T21:18:13;6.38;;;3.50;;
78716;SDS011;68045;50.042;14.432;2023-05-29T21:22:14;6.40;;;3.70;;
78716;SDS011;68045;50.042;14.432;2023-05-29T21:26:15;6.72;;;3.58;;
78716;SDS011;68045;50.042;14.432;2023-05-29T21:30:16;5.53;;;3.50;;
78716;SDS011;68045;50.042;14.432;2023-05-29T21:34:19;7.28;;;3.83;;
78716;SDS011;68045;50.042;14.432;2023-05-29T21:38:21;7.30;;;3.63;;
78716;SDS011;68045;50.042;14.432;2023-05-29T21:42:22;7.90;;;3.85;;
78716;SDS011;68045;50.042;14.432;2023-05-29T21:46:23;9.88;;;3.67;;
78716;SDS011;68045;50.042;14.432;2023-05-29T21:50:26;8.38;;;3.97;;
78716;SDS011;68045;50.042;14.432;2023-05-29T21:54:26;7.47;;;3.75;;
78716;SDS011;68045;50.042;14.432;2023-05-29T21:58:28;8.48;;;4.20;;
78716;SDS011;68045;50.042;14.432;2023-05-29T22:02:30;7.53;;;3.92;;
78716;SDS011;68045;50.042;14.432;2023-05-29T22:06:31;5.47;;;3.42;;
78716;SDS011;68045;50.042;14.432;2023-05-29T22:10:33;8.88;;;3.72;;
78716;SDS011;68045;50.042;14.432;2023-05-29T22:14:36;9.85;;;3.78;;
78716;SDS011;68045;50.042;14.432;2023-05-29T22:18:37;6.78;;;3.67;;
78716;SDS011;68045;50.042;14.432;2023-05-29T22:22:38;6.72;;;3.45;;
78716;SDS011;68045;50.042;14.432;2023-05-29T22:26:39;6.15;;;3.70;;
78716;SDS011;68045;50.042;14.432;2023-05-29T22:30:40;8.07;;;3.85;;
78716;SDS011;68045;50.042;14.432;2023-05-29T22:34:41;5.97;;;3.58;;
78716;SDS011;68045;50.042;14.432;2023-05-29T22:38:43;7.13;;;3.80;;
78716;SDS011;68045;50.042;14.432;2023-05-29T22:42:44;10.05;;;4.03;;
78716;SDS011;68045;50.042;14.432;2023-05-29T22:46:45;7.95;;;3.92;;
78716;SDS011;68045;50.042;14.432;2023-05-29T22:50:46;8.90;;;4.05;;
78716;SDS011;68045;50.042;14.432;2023-05-29T22:54:47;14.25;;;4.25;;
78716;SDS011;68045;50.042;14.432;2023-05-29T22:58:49;6.15;;;3.30;;
78716;SDS011;68045;50.042;14.432;2023-05-29T23:02:50;5.90;;;3.28;;
78716;SDS011;68045;50.042;14.432;2023-05-29T23:06:52;7.90;;;4.03;;
78716;SDS011;68045;50.042;14.432;2023-05-29T23:10:53;7.32;;;3.92;;
78716;SDS011;68045;50.042;14.432;2023-05-29T23:14:54;9.63;;;3.53;;
78716;SDS011;68045;50.042;14.432;2023-05-29T23:18:55;6.57;;;4.03;;
78716;SDS011;68045;50.042;14.432;2023-05-29T23:22:57;7.20;;;3.67;;
78716;SDS011;68045;50.042;14.432;2023-05-29T23:26:57;8.68;;;4.03;;
78716;SDS011;68045;50.042;14.432;2023-05-29T23:30:59;8.80;;;3.83;;
78716;SDS011;68045;50.042;14.432;2023-05-29T23:35:00;8.18;;;3.60;;
78716;SDS011;68045;50.042;14.432;2023-05-29T23:39:01;7.80;;;4.07;;
78716;SDS011;68045;50.042;14.432;2023-05-29T23:43:02;8.98;;;3.70;;
78716;SDS011;68045;50.042;14.432;2023-05-29T23:47:03;7.00;;;3.92;;
78716;SDS011;68045;50.042;14.432;2023-05-29T23:51:04;6.97;;;3.60;;
78716;SDS011;68045;50.042;14.432;2023-05-29T23:55:05;6.15;;;3.72;;
78716;SDS011;68045;50.042;14.432;2023-05-29T23:59:07;7.38;;;3.47;;
